»·PEaware :: N142J KTOA-0O2

N142J :: KTOA-0O2

FLIGHT INFORMATION

Flight Status: Arrived
Operator: Privately registered:
United States
More flights under this callsign
Pilot: Gerald N. (20758)
Aircraft: Unknown
(SF50)
More flights by this aircraft type
Origin: KTOA Zamperini
United States
Destination: 0O2 Baker
United States
More flights between these airports :: More routes between these airports
Route: SLI V394 DAG
File this flight plan on PilotEdge
Remarks: Alphabet Challenge
Altitude:
(Current/Filed)
12,000ft
Speed:
(Current/Filed)
200kts
Departed: 05-Jan-20 04:39 PM
Arrived: 05-Jan-20 05:31 PM
Distance/Time
Traveled:
143nm/0:52
Distance/Time
To Go:
Arrived

Flight Plot

Page will automatically refresh every two minutes.

Flight plan parsing failed; only flown route is shown


Map Options




Map Legend


Flown Route
Filed Route
Departure Airport
Arrival Airport
Navaid (VOR, NDB)
Fix

Horizontal Profiles

Position Reports

Time Latitude Longitude Heading Altitude Ground
Speed
05-Jan-20 16:30 33.801601 -118.341420 218 107ft 0kts
05-Jan-20 16:31 33.801601 -118.341420 218 107ft 0kts
05-Jan-20 16:32 33.801601 -118.341420 218 107ft 0kts
05-Jan-20 16:33 33.801601 -118.341420 218 107ft 0kts
05-Jan-20 16:34 33.801601 -118.341420 218 107ft 0kts
05-Jan-20 16:35 33.801601 -118.341420 218 107ft 0kts
05-Jan-20 16:36 33.801001 -118.340155 125 107ft 12kts
05-Jan-20 16:37 33.799789 -118.336845 49 107ft 6kts
05-Jan-20 16:38 33.803208 -118.341007 306 108ft 94kts
05-Jan-20 16:39 33.830527 -118.350484 46 1814ft 144kts
05-Jan-20 16:40 33.809282 -118.319793 127 3505ft 166kts
05-Jan-20 16:41 33.798183 -118.263905 95 3490ft 169kts
05-Jan-20 16:42 33.793928 -118.204024 96 3483ft 184kts
05-Jan-20 16:43 33.789568 -118.142357 97 3483ft 185kts
05-Jan-20 16:44 33.785181 -118.080753 97 3481ft 183kts
05-Jan-20 16:45 33.792239 -118.020467 73 3716ft 196kts
05-Jan-20 16:46 33.810907 -117.948392 72 4413ft 231kts
05-Jan-20 16:47 33.853312 -117.896094 19 5125ft 229kts
05-Jan-20 16:48 33.913541 -117.866972 18 5474ft 239kts
05-Jan-20 16:49 33.975452 -117.837007 18 5478ft 239kts
05-Jan-20 16:50 34.037231 -117.807077 18 5485ft 238kts
05-Jan-20 16:52 34.092888 -117.766477 43 5930ft 220kts
05-Jan-20 16:53 34.136068 -117.709473 44 7978ft 243kts
05-Jan-20 16:54 34.185232 -117.643244 43 9354ft 274kts
05-Jan-20 16:55 34.202206 -117.620313 43 10032ft 271kts
05-Jan-20 16:56 34.202206 -117.620313 43 10032ft 271kts
05-Jan-20 16:57 34.202206 -117.620313 43 10032ft 271kts
05-Jan-20 16:58 34.202206 -117.620313 43 10032ft 271kts
05-Jan-20 16:59 34.202206 -117.620313 43 10032ft 271kts
05-Jan-20 17:00 34.202206 -117.620313 43 10032ft 271kts
05-Jan-20 17:01 34.214813 -117.603280 43 10541ft 266kts
05-Jan-20 17:02 34.255358 -117.548376 40 11796ft 202kts
05-Jan-20 17:03 34.295887 -117.493617 41 11827ft 231kts
05-Jan-20 17:04 34.340159 -117.433499 42 11859ft 243kts
05-Jan-20 17:05 34.385681 -117.371639 42 11895ft 248kts
05-Jan-20 17:06 34.431781 -117.308889 42 11888ft 250kts
05-Jan-20 17:07 34.478071 -117.245768 42 11875ft 251kts
05-Jan-20 17:08 34.524403 -117.182478 42 11883ft 251kts
05-Jan-20 17:09 34.570510 -117.119379 42 11908ft 250kts
05-Jan-20 17:10 34.617337 -117.055214 43 11377ft 259kts
05-Jan-20 17:11 34.663291 -116.992051 44 10066ft 243kts
05-Jan-20 17:11 34.700332 -116.941096 44 8977ft 239kts
05-Jan-20 17:13 34.750268 -116.872233 45 7988ft 215kts
05-Jan-20 17:13 34.781647 -116.828938 45 7995ft 210kts
05-Jan-20 17:14 34.823218 -116.771494 45 7993ft 238kts
05-Jan-20 17:15 34.867877 -116.709621 45 7991ft 245kts
05-Jan-20 17:16 34.911736 -116.648750 45 7991ft 233kts
05-Jan-20 17:17 34.954742 -116.588986 45 7992ft 237kts
05-Jan-20 17:18 34.997282 -116.525147 48 7591ft 253kts
05-Jan-20 17:19 35.042413 -116.456207 48 6797ft 263kts
05-Jan-20 17:20 35.088339 -116.385931 48 6001ft 265kts
05-Jan-20 17:21 35.133834 -116.316163 49 5590ft 253kts
05-Jan-20 17:22 35.176808 -116.250153 49 5515ft 246kts
05-Jan-20 17:23 35.218917 -116.185338 49 5499ft 241kts
05-Jan-20 17:24 35.264756 -116.126375 45 5499ft 239kts
05-Jan-20 17:25 35.268325 -116.089241 271 3469ft 219kts
05-Jan-20 17:26 35.246055 -116.138723 211 3054ft 176kts
05-Jan-20 17:27 35.219362 -116.123460 66 2350ft 191kts
05-Jan-20 17:28 35.248808 -116.073074 16 2398ft 172kts
05-Jan-20 17:29 35.281970 -116.079977 343 989ft 83kts
05-Jan-20 17:30 35.287821 -116.081224 233 925ft 0kts
05-Jan-20 17:31 35.287822 -116.081224 233 925ft 0kts
05-Jan-20 17:32 35.287822 -116.081224 233 925ft 0kts
05-Jan-20 17:33 35.287822 -116.081224 233 925ft 0kts

Navigation Log

Ident Type
Flight plan parsing failed, navigation log unavailable